Time;durP1;ratioP1;P1;durP2;ratioP2;P2;SDS_P1;SDS_P2;PMS_P1;PMS_P2;Temp;Humidity;BMP_temperature;BMP_pressure;BME280_temperature;BME280_humidity;BME280_pressure;Samples;Min_cycle;Max_cycle;Signal;HPM_P1;HPM_P2
2021/09/14 00:00:52;;;;;;;21.53;7.70;;;15.10;98.30;;;;;;5176035;23;20442;-80
2021/09/14 00:02:55;;;;;;;7.93;5.20;;;15.10;98.30;;;;;;5167662;23;20427;-80
2021/09/14 00:04:58;;;;;;;9.23;4.87;;;15.10;98.30;;;;;;5176005;23;20768;-80
2021/09/14 00:07:02;;;;;;;10.03;5.97;;;15.10;98.30;;;;;;5175943;23;20451;-80
2021/09/14 00:09:08;;;;;;;8.20;4.47;;;15.20;98.30;;;;;;5176186;23;20495;-80
2021/09/14 00:11:10;;;;;;;6.80;4.23;;;15.20;98.30;;;;;;5167819;23;20970;-80
2021/09/14 00:13:14;;;;;;;7.73;4.20;;;15.10;98.30;;;;;;5175743;23;20438;-80
2021/09/14 00:15:17;;;;;;;7.47;4.17;;;15.20;98.30;;;;;;5175714;23;20988;-80
2021/09/14 00:17:20;;;;;;;6.63;4.50;;;15.20;98.30;;;;;;5175779;23;20530;-81
2021/09/14 00:19:23;;;;;;;7.73;4.80;;;15.20;98.30;;;;;;5175929;23;20496;-81
2021/09/14 00:21:26;;;;;;;6.10;4.50;;;15.20;98.30;;;;;;5167644;23;20459;-80
2021/09/14 00:23:29;;;;;;;6.37;4.30;;;15.00;98.30;;;;;;5175856;23;20947;-80
2021/09/14 00:25:35;;;;;;;7.33;4.30;;;14.80;98.30;;;;;;5167544;23;20446;-80
2021/09/14 00:27:38;;;;;;;6.30;3.57;;;14.70;98.30;;;;;;5167649;23;20412;-80
2021/09/14 00:29:41;;;;;;;8.10;4.67;;;14.70;98.30;;;;;;5167720;23;20431;-80
2021/09/14 00:31:44;;;;;;;14.77;3.63;;;14.70;98.30;;;;;;5175445;23;20452;-80
2021/09/14 00:33:47;;;;;;;6.53;4.33;;;14.70;98.30;;;;;;5175662;23;20416;-80
2021/09/14 00:35:50;;;;;;;11.03;4.60;;;14.70;98.30;;;;;;5167596;23;20431;-80
2021/09/14 00:37:53;;;;;;;5.37;3.90;;;14.70;98.30;;;;;;5175512;23;20423;-80
2021/09/14 00:39:56;;;;;;;5.33;2.90;;;14.60;98.30;;;;;;5175642;23;20424;-80
2021/09/14 00:42:00;;;;;;;8.07;4.13;;;14.60;98.30;;;;;;5176267;23;20777;-79
2021/09/14 00:44:04;;;;;;;10.80;5.17;;;14.50;98.30;;;;;;5175645;23;20752;-80
2021/09/14 00:46:07;;;;;;;8.90;3.37;;;14.40;98.30;;;;;;5167070;23;20513;-80
2021/09/14 00:48:10;;;;;;;8.83;5.20;;;14.50;98.30;;;;;;5167212;23;20810;-80
2021/09/14 00:50:14;;;;;;;9.10;4.80;;;14.40;98.30;;;;;;5167373;23;20490;-80
2021/09/14 00:52:17;;;;;;;9.13;4.20;;;14.50;98.30;;;;;;5175899;23;20427;-80
2021/09/14 00:54:20;;;;;;;9.33;4.03;;;14.40;98.30;;;;;;5167823;23;20423;-80
2021/09/14 00:56:23;;;;;;;4.80;3.27;;;14.40;98.30;;;;;;5176060;23;20420;-80
2021/09/14 00:58:27;;;;;;;4.50;3.10;;;14.40;98.30;;;;;;5167912;23;20431;-80
2021/09/14 01:00:30;;;;;;;9.33;4.10;;;14.40;98.30;;;;;;5168345;23;20578;-80
2021/09/14 01:02:33;;;;;;;13.03;6.93;;;14.50;98.30;;;;;;5176208;23;20800;-80
2021/09/14 01:04:36;;;;;;;6.67;3.80;;;14.50;98.30;;;;;;5167169;23;20505;-80
2021/09/14 01:06:39;;;;;;;5.80;3.00;;;14.60;98.30;;;;;;5176463;23;20503;-80
2021/09/14 01:08:43;;;;;;;5.00;3.40;;;14.50;98.30;;;;;;5176538;23;20412;-80
2021/09/14 01:10:46;;;;;;;5.00;3.40;;;14.50;98.30;;;;;;5168054;23;20448;-80
2021/09/14 01:12:50;;;;;;;7.30;3.43;;;14.50;98.30;;;;;;5176146;23;20454;-80
2021/09/14 01:14:56;;;;;;;6.40;3.20;;;14.50;98.30;;;;;;5176266;23;20427;-80
2021/09/14 01:16:59;;;;;;;6.10;3.50;;;14.50;98.30;;;;;;5167794;23;20487;-80
2021/09/14 01:19:03;;;;;;;5.90;3.10;;;14.40;98.30;;;;;;5167625;23;20424;-80
2021/09/14 01:21:07;;;;;;;4.73;2.93;;;14.40;98.30;;;;;;5167885;23;20478;-80
2021/09/14 01:23:12;;;;;;;9.57;3.53;;;14.40;98.30;;;;;;5167428;23;20423;-80
2021/09/14 01:25:16;;;;;;;6.10;3.33;;;14.40;98.30;;;;;;5167017;23;20440;-80
2021/09/14 01:27:19;;;;;;;6.03;3.60;;;14.30;98.30;;;;;;5176305;23;20482;-80
2021/09/14 01:31:43;;;;;;;4.60;3.30;;;14.30;98.30;;;;;;5176431;23;21006;-80
2021/09/14 01:33:52;;;;;;;8.47;3.40;;;14.30;98.30;;;;;;5175738;23;20419;-81
2021/09/14 01:35:55;;;;;;;7.70;3.20;;;14.30;98.30;;;;;;5176124;23;20897;-81
2021/09/14 01:37:59;;;;;;;6.03;3.43;;;14.30;98.30;;;;;;5176082;23;20519;-80
2021/09/14 01:40:05;;;;;;;4.97;3.10;;;14.30;98.30;;;;;;5176356;23;20439;-80
2021/09/14 01:42:08;;;;;;;4.83;3.30;;;14.30;98.30;;;;;;5168018;23;20430;-80
2021/09/14 01:44:11;;;;;;;5.17;3.83;;;14.30;98.30;;;;;;5167644;23;20436;-80
2021/09/14 01:46:14;;;;;;;6.50;3.53;;;14.30;98.30;;;;;;5167595;23;20452;-79
2021/09/14 01:48:17;;;;;;;6.23;3.77;;;14.30;98.30;;;;;;5167754;23;20432;-80
2021/09/14 01:50:19;;;;;;;4.90;3.67;;;14.10;98.30;;;;;;5167954;23;20450;-80
2021/09/14 01:52:25;;;;;;;7.33;3.90;;;13.90;98.30;;;;;;5168047;23;20427;-80
2021/09/14 01:54:28;;;;;;;5.07;3.87;;;13.80;98.30;;;;;;5167367;23;20506;-80
2021/09/14 01:56:32;;;;;;;8.70;4.50;;;13.50;98.30;;;;;;5176105;23;20424;-80
2021/09/14 01:58:35;;;;;;;5.50;4.27;;;13.50;98.30;;;;;;5168470;23;20428;-80
2021/09/14 02:00:42;;;;;;;6.60;4.50;;;13.40;98.30;;;;;;5176251;23;21025;-80
2021/09/14 02:05:07;;;;;;;11.80;4.60;;;13.40;98.30;;;;;;5144807;23;20499;-79
2021/09/14 02:07:29;;;;;;;8.67;4.47;;;13.40;98.30;;;;;;5176709;23;20913;-80
2021/09/14 02:43:05;;;;;;;6.87;3.70;;;13.50;98.30;;;;;;5166700;23;20940;-80
2021/09/14 02:59:24;;;;;;;5.97;4.50;;;13.30;98.30;;;;;;5174625;23;20486;-80
2021/09/14 03:01:29;;;;;;;4.23;3.77;;;13.30;98.30;;;;;;5166102;23;20443;-80
2021/09/14 03:03:32;;;;;;;5.50;3.80;;;13.40;98.30;;;;;;5166343;23;20430;-80
2021/09/14 03:05:35;;;;;;;5.20;3.77;;;13.50;98.30;;;;;;5173850;23;20534;-80
2021/09/14 03:07:38;;;;;;;10.07;4.03;;;13.60;98.30;;;;;;5174890;23;20507;-80
2021/09/14 03:09:41;;;;;;;10.40;4.20;;;13.70;98.30;;;;;;5175268;23;20427;-80
2021/09/14 03:11:44;;;;;;;8.87;4.67;;;13.70;98.30;;;;;;5167499;23;20558;-81
2021/09/14 03:13:47;;;;;;;9.97;5.60;;;13.90;98.30;;;;;;5167483;23;20428;-80
2021/09/14 03:15:50;;;;;;;11.37;5.20;;;14.00;98.30;;;;;;5167954;23;20427;-80
2021/09/14 03:17:54;;;;;;;8.60;5.93;;;14.10;98.30;;;;;;5175904;23;20909;-80
2021/09/14 03:19:57;;;;;;;11.70;6.00;;;14.20;98.30;;;;;;5176507;23;20423;-80
2021/09/14 03:22:00;;;;;;;9.03;5.57;;;14.20;98.30;;;;;;5167876;23;20428;-80
2021/09/14 03:24:03;;;;;;;11.67;5.30;;;14.30;98.30;;;;;;5177248;23;20426;-80
2021/09/14 03:26:06;;;;;;;7.50;5.20;;;14.30;98.30;;;;;;5177899;23;20439;-80
2021/09/14 03:28:09;;;;;;;12.10;7.60;;;14.30;98.30;;;;;;5169539;23;20910;-80
2021/09/14 03:30:12;;;;;;;16.83;11.57;;;14.20;98.30;;;;;;5169424;23;20431;-80
2021/09/14 03:32:15;;;;;;;13.87;8.23;;;14.30;98.30;;;;;;5169611;23;20812;-80
2021/09/14 03:34:20;;;;;;;13.07;8.00;;;14.30;98.30;;;;;;5169367;23;20427;-80
2021/09/14 03:36:22;;;;;;;10.90;6.90;;;14.20;98.30;;;;;;5169871;23;20424;-80
2021/09/14 03:38:25;;;;;;;6.03;3.97;;;14.10;98.30;;;;;;5169904;23;21102;-80
2021/09/14 03:40:29;;;;;;;13.47;7.90;;;14.00;98.30;;;;;;5169588;23;20966;-80
2021/09/14 03:42:32;;;;;;;8.90;5.90;;;14.10;98.30;;;;;;5169952;23;20510;-82
2021/09/14 03:44:34;;;;;;;6.20;5.60;;;14.10;98.30;;;;;;5169143;23;20459;-81
2021/09/14 03:46:37;;;;;;;5.73;4.70;;;14.10;98.30;;;;;;5169561;23;20454;-81
2021/09/14 03:48:40;;;;;;;6.17;3.87;;;14.10;98.30;;;;;;5169276;23;20423;-81
2021/09/14 03:50:47;;;;;;;6.80;4.57;;;14.10;98.30;;;;;;5169584;23;20478;-81
2021/09/14 03:52:50;;;;;;;6.13;4.60;;;14.10;98.30;;;;;;5176694;23;20427;-82
2021/09/14 03:54:53;;;;;;;9.30;5.10;;;14.10;98.30;;;;;;5167773;23;20459;-81
2021/09/14 03:56:55;;;;;;;5.43;4.87;;;14.10;98.30;;;;;;5177013;23;20430;-81
2021/09/14 03:58:58;;;;;;;7.97;4.80;;;14.10;98.30;;;;;;5170105;23;20427;-81
2021/09/14 04:01:01;;;;;;;8.63;5.30;;;14.10;98.30;;;;;;5169317;23;20452;-81
2021/09/14 04:03:07;;;;;;;6.33;3.80;;;14.10;98.30;;;;;;5168865;23;20478;-81
2021/09/14 04:07:38;;;;;;;6.60;3.83;;;14.10;98.30;;;;;;5165710;23;20802;-81
2021/09/14 04:09:41;;;;;;;9.83;3.50;;;14.10;98.30;;;;;;5177909;23;20522;-81
2021/09/14 04:11:44;;;;;;;6.53;3.77;;;14.00;98.30;;;;;;5177762;23;20447;-81
2021/09/14 04:13:47;;;;;;;4.60;3.40;;;14.00;98.30;;;;;;5178515;23;20423;-81
2021/09/14 04:15:50;;;;;;;5.07;4.43;;;14.00;98.30;;;;;;5170422;23;20909;-81
2021/09/14 04:17:53;;;;;;;7.43;4.70;;;14.10;98.30;;;;;;5169909;23;20428;-81
2021/09/14 04:19:55;;;;;;;6.47;5.40;;;14.20;98.30;;;;;;5169572;23;20519;-81
2021/09/14 04:21:58;;;;;;;14.87;4.80;;;14.20;98.30;;;;;;5169660;23;20424;-81
2021/09/14 04:24:02;;;;;;;8.00;4.60;;;14.30;98.30;;;;;;5170185;23;20908;-81
2021/09/14 04:26:05;;;;;;;11.70;5.40;;;14.30;98.30;;;;;;5169792;23;21109;-81
2021/09/14 04:28:08;;;;;;;11.20;5.93;;;14.30;98.30;;;;;;5177802;23;20784;-81
2021/09/14 04:30:12;;;;;;;7.47;4.70;;;14.30;98.30;;;;;;5169493;23;20434;-81
2021/09/14 04:32:14;;;;;;;7.03;4.93;;;14.30;98.30;;;;;;5169302;23;20431;-82
2021/09/14 04:34:17;;;;;;;7.53;4.50;;;14.30;98.30;;;;;;5168610;23;20434;-81
2021/09/14 04:36:20;;;;;;;4.93;3.20;;;14.20;98.30;;;;;;5169159;23;20456;-81
2021/09/14 04:38:23;;;;;;;6.70;3.73;;;14.10;98.30;;;;;;5169699;23;20446;-81
2021/09/14 04:40:27;;;;;;;7.07;4.13;;;13.90;98.30;;;;;;5169267;23;20485;-81
2021/09/14 04:42:30;;;;;;;6.23;3.90;;;13.90;98.30;;;;;;5169735;23;20424;-81
2021/09/14 04:44:33;;;;;;;5.43;3.60;;;13.90;98.30;;;;;;5169639;23;20431;-82
2021/09/14 04:46:36;;;;;;;5.57;3.93;;;13.90;98.30;;;;;;5178194;23;20762;-82
2021/09/14 04:48:39;;;;;;;5.70;3.63;;;13.80;98.30;;;;;;5178013;23;20420;-82
2021/09/14 04:50:42;;;;;;;5.43;3.20;;;13.70;98.30;;;;;;5169662;23;20448;-82
2021/09/14 04:52:45;;;;;;;10.80;4.33;;;13.50;98.30;;;;;;5177429;23;20450;-83
2021/09/14 04:54:48;;;;;;;7.13;4.00;;;13.50;98.30;;;;;;5175983;23;20515;-82
2021/09/14 04:56:52;;;;;;;5.40;3.13;;;13.60;98.30;;;;;;5176207;23;20464;-83
2021/09/14 04:58:55;;;;;;;8.53;4.23;;;13.70;98.30;;;;;;5175740;23;20420;-84
2021/09/14 05:00:58;;;;;;;14.37;8.70;;;13.70;98.30;;;;;;5167894;23;20606;-84
2021/09/14 05:03:01;;;;;;;6.10;4.20;;;13.80;98.30;;;;;;5181465;23;20432;-83
2021/09/14 05:05:05;;;;;;;6.67;4.60;;;13.90;98.30;;;;;;5189053;23;20427;-83
2021/09/14 05:07:09;;;;;;;8.80;4.60;;;13.80;98.30;;;;;;5181827;23;20440;-84
2021/09/14 05:09:12;;;;;;;7.30;4.80;;;13.80;98.30;;;;;;5180884;23;20459;-82
2021/09/14 05:11:15;;;;;;;8.80;5.63;;;13.80;98.30;;;;;;5183789;23;20443;-83
2021/09/14 05:13:19;;;;;;;10.87;5.80;;;13.90;98.30;;;;;;5173762;23;20412;-83
2021/09/14 05:15:22;;;;;;;8.20;4.47;;;13.90;98.30;;;;;;5173218;23;20434;-83
2021/09/14 05:17:25;;;;;;;8.13;5.10;;;13.90;98.30;;;;;;5173617;23;20485;-83
2021/09/14 05:19:32;;;;;;;5.90;4.10;;;14.00;98.30;;;;;;5166523;23;20558;-84
2021/09/14 05:21:43;;;;;;;5.77;3.90;;;13.90;98.30;;;;;;5175801;23;20519;-83
2021/09/14 05:23:46;;;;;;;19.17;10.40;;;14.10;98.30;;;;;;5175081;23;20615;-84
2021/09/14 05:25:49;;;;;;;15.03;10.00;;;14.10;98.30;;;;;;5167332;23;20427;-84
2021/09/14 05:27:52;;;;;;;13.90;6.97;;;14.30;98.30;;;;;;5171054;23;20454;-83
2021/09/14 05:29:57;;;;;;;10.27;6.40;;;14.40;98.30;;;;;;5190551;23;20452;-83
2021/09/14 05:32:00;;;;;;;15.73;7.13;;;14.50;98.30;;;;;;5182491;23;20483;-83
2021/09/14 05:34:03;;;;;;;12.60;8.63;;;14.40;98.30;;;;;;5190769;23;20488;-84
2021/09/14 05:36:08;;;;;;;8.10;5.60;;;14.60;98.30;;;;;;5190205;23;20503;-84
2021/09/14 05:38:11;;;;;;;11.20;6.80;;;14.60;98.30;;;;;;5184707;23;20427;-84
2021/09/14 05:40:14;;;;;;;7.87;5.13;;;14.60;98.30;;;;;;5191466;23;20739;-84
2021/09/14 05:42:17;;;;;;;14.27;7.93;;;14.70;98.30;;;;;;5178325;23;20781;-84
2021/09/14 05:44:20;;;;;;;8.30;5.93;;;14.70;98.30;;;;;;5169116;23;20462;-85
2021/09/14 05:46:25;;;;;;;9.50;5.47;;;14.90;98.30;;;;;;5167025;23;20519;-84
2021/09/14 05:48:28;;;;;;;10.07;5.83;;;15.10;98.30;;;;;;5167428;23;20440;-84
2021/09/14 05:50:31;;;;;;;7.93;4.03;;;15.10;98.30;;;;;;5167118;23;20773;-83
2021/09/14 05:52:34;;;;;;;7.13;4.67;;;15.00;98.30;;;;;;5176766;23;20507;-84
2021/09/14 05:54:37;;;;;;;7.93;3.53;;;14.90;98.30;;;;;;5177509;23;20506;-83
2021/09/14 05:56:40;;;;;;;6.80;3.90;;;14.90;98.30;;;;;;5167346;23;20456;-83
2021/09/14 05:58:44;;;;;;;8.03;3.80;;;14.70;98.30;;;;;;5167658;23;21144;-84
2021/09/14 06:00:48;;;;;;;13.60;4.30;;;14.50;98.30;;;;;;5175840;23;20439;-83
2021/09/14 06:02:52;;;;;;;11.27;3.50;;;14.40;98.30;;;;;;5175856;23;20424;-83
2021/09/14 06:04:55;;;;;;;6.03;3.07;;;14.40;98.30;;;;;;5176348;23;20422;-83
2021/09/14 06:06:58;;;;;;;6.00;4.67;;;14.40;98.30;;;;;;5168426;23;20424;-84
2021/09/14 06:09:01;;;;;;;7.03;3.77;;;14.40;98.30;;;;;;5176131;23;20474;-82
2021/09/14 06:11:04;;;;;;;5.03;4.00;;;14.40;98.30;;;;;;5176791;23;20446;-84
2021/09/14 06:13:07;;;;;;;5.90;2.90;;;14.50;98.30;;;;;;5175353;23;20739;-83
2021/09/14 06:15:11;;;;;;;6.20;3.40;;;14.50;98.30;;;;;;5176288;23;20431;-84
2021/09/14 06:17:15;;;;;;;9.70;4.30;;;14.50;98.30;;;;;;5176647;23;20510;-84
2021/09/14 06:19:21;;;;;;;7.00;3.37;;;14.60;98.30;;;;;;5177015;23;20430;-84
2021/09/14 06:21:24;;;;;;;7.13;3.50;;;14.60;98.30;;;;;;5167835;23;20534;-83
2021/09/14 06:23:27;;;;;;;4.90;3.60;;;14.70;98.30;;;;;;5167793;23;20989;-83
2021/09/14 06:25:30;;;;;;;4.83;3.30;;;14.70;98.30;;;;;;5175652;23;20510;-83
2021/09/14 06:27:33;;;;;;;4.50;3.37;;;14.70;98.30;;;;;;5167611;23;20432;-84
2021/09/14 06:29:38;;;;;;;6.40;3.63;;;14.70;98.30;;;;;;5175530;23;20428;-83
2021/09/14 06:31:41;;;;;;;6.00;3.60;;;14.70;98.30;;;;;;5167379;23;20443;-84
2021/09/14 06:33:44;;;;;;;5.70;3.60;;;14.80;98.30;;;;;;5175429;23;20810;-84
2021/09/14 06:35:48;;;;;;;7.13;3.80;;;14.80;98.30;;;;;;5176250;23;20462;-83
2021/09/14 06:37:51;;;;;;;9.77;5.00;;;14.90;98.30;;;;;;5167544;23;20749;-83
2021/09/14 06:39:58;;;;;;;5.60;3.60;;;15.00;98.30;;;;;;5175707;23;20420;-84
2021/09/14 06:42:01;;;;;;;6.40;4.07;;;15.10;98.30;;;;;;5175792;23;20447;-84
2021/09/14 06:44:04;;;;;;;5.83;3.80;;;15.10;98.30;;;;;;5175465;23;20471;-83
2021/09/14 06:46:07;;;;;;;5.47;3.20;;;15.10;98.30;;;;;;5176382;23;20431;-84
2021/09/14 06:48:14;;;;;;;4.50;3.00;;;15.10;98.30;;;;;;5167669;23;20447;-84
2021/09/14 06:50:21;;;;;;;11.40;4.57;;;15.10;98.30;;;;;;5176054;23;20486;-84
2021/09/14 06:52:25;;;;;;;8.00;3.83;;;15.00;98.30;;;;;;5176172;23;20886;-83
2021/09/14 06:54:28;;;;;;;6.33;3.50;;;14.80;98.30;;;;;;5176040;23;20490;-84
2021/09/14 06:56:31;;;;;;;7.60;3.70;;;14.80;98.30;;;;;;5176579;23;20462;-84
2021/09/14 06:58:35;;;;;;;6.70;3.37;;;14.80;98.30;;;;;;5178586;23;20558;-84
2021/09/14 07:00:38;;;;;;;7.60;4.03;;;14.90;98.30;;;;;;5178394;23;20494;-83
2021/09/14 07:02:41;;;;;;;5.50;3.87;;;15.00;98.30;;;;;;5169860;23;20428;-84
2021/09/14 07:04:45;;;;;;;7.87;3.60;;;14.90;98.30;;;;;;5168992;23;20894;-83
2021/09/14 07:06:50;;;;;;;5.20;3.93;;;14.90;98.30;;;;;;5177493;23;20765;-84
2021/09/14 07:08:54;;;;;;;4.40;3.67;;;14.90;98.30;;;;;;5169407;23;20504;-84
2021/09/14 07:10:58;;;;;;;9.27;3.97;;;15.10;98.30;;;;;;5168881;23;20502;-84
2021/09/14 07:13:01;;;;;;;6.90;4.27;;;15.30;98.30;;;;;;5168588;23;20510;-84
2021/09/14 07:15:04;;;;;;;4.97;4.00;;;15.50;98.30;;;;;;5168640;23;20924;-84
2021/09/14 07:17:10;;;;;;;6.10;4.20;;;15.70;98.30;;;;;;5169043;23;20466;-84
2021/09/14 07:19:13;;;;;;;7.40;4.20;;;15.80;98.30;;;;;;5177433;23;21141;-84
2021/09/14 07:21:19;;;;;;;6.27;4.17;;;15.90;98.30;;;;;;5169028;23;20517;-83
2021/09/14 07:23:22;;;;;;;13.20;4.50;;;16.10;98.30;;;;;;5168797;23;20431;-84
2021/09/14 07:25:27;;;;;;;5.93;4.47;;;16.10;98.30;;;;;;5177434;23;20940;-83
2021/09/14 07:27:30;;;;;;;8.07;4.10;;;15.90;98.30;;;;;;5177231;23;20909;-83
2021/09/14 07:29:35;;;;;;;8.73;4.13;;;15.70;98.30;;;;;;5168335;23;20479;-84
2021/09/14 07:31:43;;;;;;;8.37;4.03;;;15.60;98.30;;;;;;5177010;23;20478;-84
2021/09/14 07:33:46;;;;;;;6.57;3.80;;;15.70;98.30;;;;;;5168620;23;20419;-83
2021/09/14 07:35:49;;;;;;;4.77;4.20;;;15.90;98.30;;;;;;5177281;23;20423;-84
2021/09/14 07:37:52;;;;;;;8.97;4.80;;;16.20;98.30;;;;;;5176878;23;20746;-84
2021/09/14 07:39:59;;;;;;;8.27;4.60;;;16.40;98.30;;;;;;5168744;23;20408;-83
2021/09/14 07:42:03;;;;;;;6.87;4.20;;;16.40;98.30;;;;;;5177241;23;20907;-84
2021/09/14 07:44:06;;;;;;;5.90;4.40;;;16.50;98.30;;;;;;5176645;23;20462;-84
2021/09/14 07:46:10;;;;;;;7.20;4.07;;;16.80;98.30;;;;;;5176340;23;20431;-84
2021/09/14 07:48:13;;;;;;;5.77;4.17;;;16.90;98.30;;;;;;5177078;23;20424;-84
2021/09/14 07:50:16;;;;;;;12.40;7.67;;;16.90;98.30;;;;;;5168225;23;20448;-84
2021/09/14 07:52:19;;;;;;;9.93;5.53;;;17.10;98.30;;;;;;5177221;23;20420;-84
2021/09/14 07:54:59;;;;;;;6.50;4.07;;;17.10;98.30;;;;;;5181571;23;20471;-84
2021/09/14 07:57:04;;;;;;;10.23;4.70;;;17.20;98.30;;;;;;5177472;23;20967;-84
2021/09/14 07:59:09;;;;;;;7.00;3.93;;;17.50;98.30;;;;;;5176519;23;20526;-84
2021/09/14 08:01:12;;;;;;;4.57;4.03;;;17.80;98.30;;;;;;5176768;23;21051;-84
2021/09/14 08:03:15;;;;;;;7.50;4.00;;;18.00;98.30;;;;;;5167944;23;20435;-84
2021/09/14 08:05:18;;;;;;;6.60;3.80;;;18.20;98.30;;;;;;5175754;23;20433;-84
2021/09/14 08:07:21;;;;;;;8.17;4.50;;;18.30;98.30;;;;;;5176078;23;20424;-84
2021/09/14 08:09:25;;;;;;;5.13;3.57;;;18.40;98.30;;;;;;5175673;23;20750;-84
2021/09/14 08:11:29;;;;;;;7.03;3.83;;;18.40;98.30;;;;;;5177137;23;20443;-84
2021/09/14 08:14:03;;;;;;;11.10;4.30;;;18.40;98.30;;;;;;5147958;23;20451;-84
2021/09/14 08:16:06;;;;;;;5.27;3.80;;;18.70;98.30;;;;;;5168248;23;20507;-84
2021/09/14 08:18:09;;;;;;;4.30;3.60;;;18.90;98.30;;;;;;5167894;23;20499;-84
2021/09/14 08:20:15;;;;;;;4.80;3.57;;;19.00;98.30;;;;;;5167815;23;20510;-83
2021/09/14 08:22:22;;;;;;;4.80;4.03;;;19.10;98.30;;;;;;5168178;23;21143;-84
2021/09/14 08:24:25;;;;;;;5.10;4.50;;;19.20;98.30;;;;;;5175958;23;20452;-84
2021/09/14 08:26:30;;;;;;;6.03;4.03;;;19.30;98.30;;;;;;5176079;23;20519;-84
2021/09/14 08:28:33;;;;;;;5.63;4.43;;;19.30;98.30;;;;;;5176495;23;20523;-84
2021/09/14 08:30:38;;;;;;;5.80;4.10;;;19.50;98.30;;;;;;5176107;23;20438;-84
2021/09/14 08:32:42;;;;;;;5.10;4.23;;;19.60;98.30;;;;;;5176169;23;20458;-83
2021/09/14 08:34:44;;;;;;;6.80;4.10;;;19.50;98.30;;;;;;5176497;23;20424;-84
2021/09/14 08:36:48;;;;;;;11.20;9.20;;;19.30;98.30;;;;;;5176572;23;20456;-84
2021/09/14 08:38:51;;;;;;;9.67;5.97;;;19.40;98.30;;;;;;5175892;23;20472;-84
2021/09/14 08:40:54;;;;;;;14.63;7.57;;;19.50;98.30;;;;;;5171908;23;20471;-84
2021/09/14 08:42:59;;;;;;;17.53;13.70;;;19.60;98.30;;;;;;5176124;23;20427;-84
2021/09/14 08:45:03;;;;;;;15.80;10.33;;;19.80;98.30;;;;;;5175694;23;20446;-84
2021/09/14 08:47:08;;;;;;;13.93;10.53;;;19.90;98.30;;;;;;5168556;23;20444;-82
2021/09/14 08:49:12;;;;;;;12.90;9.57;;;19.90;98.30;;;;;;5171134;23;20452;-84
2021/09/14 08:51:15;;;;;;;11.43;6.27;;;19.80;98.30;;;;;;5167756;23;20949;-84
2021/09/14 08:53:18;;;;;;;8.10;5.57;;;19.90;98.30;;;;;;5176147;23;20988;-84
2021/09/14 08:55:22;;;;;;;5.03;4.50;;;20.20;98.30;;;;;;5175825;23;20431;-84
2021/09/14 08:57:25;;;;;;;6.80;4.43;;;20.20;98.30;;;;;;5167868;23;20941;-84
2021/09/14 08:59:29;;;;;;;6.50;4.37;;;20.20;98.30;;;;;;5179682;23;20424;-84
2021/09/14 09:01:33;;;;;;;6.10;4.37;;;20.40;98.30;;;;;;5176141;23;20440;-84
2021/09/14 09:03:38;;;;;;;4.30;3.47;;;20.40;98.30;;;;;;5167170;23;20428;-84
2021/09/14 09:05:42;;;;;;;4.67;3.83;;;20.50;98.30;;;;;;5175814;23;20424;-84
2021/09/14 09:07:46;;;;;;;9.80;6.90;;;20.40;98.30;;;;;;5175983;23;20526;-84
2021/09/14 09:09:49;;;;;;;7.90;4.80;;;20.30;98.30;;;;;;5167414;23;20452;-84
2021/09/14 09:11:57;;;;;;;4.53;4.10;;;20.40;98.30;;;;;;5167661;23;20478;-83
2021/09/14 09:14:00;;;;;;;7.30;4.27;;;20.50;98.30;;;;;;5167503;23;20435;-84
2021/09/14 09:16:06;;;;;;;5.20;4.20;;;20.50;98.30;;;;;;5167893;23;20810;-83
2021/09/14 09:18:11;;;;;;;5.60;3.30;;;20.40;98.30;;;;;;5175642;23;20816;-84
2021/09/14 09:20:22;;;;;;;6.10;4.27;;;20.40;98.30;;;;;;5167221;23;20420;-84
2021/09/14 09:22:26;;;;;;;6.30;3.67;;;20.60;98.30;;;;;;5175552;23;20731;-84
2021/09/14 09:24:29;;;;;;;11.80;5.73;;;20.60;98.30;;;;;;5167054;23;20430;-84
2021/09/14 09:26:34;;;;;;;5.03;3.80;;;20.90;98.30;;;;;;5167531;23;20455;-84
2021/09/14 09:28:38;;;;;;;5.50;3.73;;;21.30;98.30;;;;;;5167628;23;20418;-83
2021/09/14 09:30:42;;;;;;;6.23;4.10;;;21.40;98.30;;;;;;5167093;23;20448;-84
2021/09/14 09:32:46;;;;;;;7.83;4.27;;;21.60;98.30;;;;;;5167679;23;20928;-84
2021/09/14 09:34:57;;;;;;;5.30;3.93;;;21.70;98.30;;;;;;5174935;23;20825;-84
2021/09/14 09:37:04;;;;;;;5.33;3.70;;;21.80;98.30;;;;;;5175639;23;20506;-84
2021/09/14 09:39:09;;;;;;;5.17;3.50;;;21.70;98.30;;;;;;5167613;23;20481;-83
2021/09/14 09:41:16;;;;;;;5.93;4.70;;;21.70;98.30;;;;;;5168981;23;20455;-83
2021/09/14 09:43:28;;;;;;;6.20;3.93;;;21.70;98.30;;;;;;5183269;23;20431;-83
2021/09/14 09:45:31;;;;;;;6.20;3.70;;;21.70;98.30;;;;;;5184017;23;20439;-83
2021/09/14 09:47:34;;;;;;;10.60;4.73;;;21.60;98.30;;;;;;5175792;23;20464;-83
2021/09/14 09:49:37;;;;;;;4.40;3.63;;;21.90;98.30;;;;;;5183959;23;20428;-84
2021/09/14 09:51:40;;;;;;;4.97;3.97;;;22.10;98.30;;;;;;5184040;23;20499;-83
2021/09/14 09:53:46;;;;;;;11.20;4.23;;;22.00;98.30;;;;;;5175505;23;20452;-83
2021/09/14 09:55:49;;;;;;;5.73;4.33;;;22.30;98.30;;;;;;5183622;23;20424;-84
2021/09/14 09:57:53;;;;;;;10.80;4.40;;;22.00;98.30;;;;;;5182060;23;20511;-83
2021/09/14 09:59:56;;;;;;;4.20;3.80;;;21.80;98.30;;;;;;5185223;23;20913;-84
2021/09/14 10:02:05;;;;;;;5.80;4.30;;;21.80;98.30;;;;;;5182523;23;20424;-83
2021/09/14 10:04:13;;;;;;;4.10;3.67;;;22.20;98.30;;;;;;5180155;23;20408;-83
2021/09/14 10:06:17;;;;;;;4.07;3.60;;;22.20;98.30;;;;;;5178485;23;20419;-84
2021/09/14 10:08:23;;;;;;;6.30;4.03;;;22.50;98.30;;;;;;5178020;23;20424;-83
2021/09/14 10:10:37;;;;;;;7.73;4.80;;;22.80;98.30;;;;;;5169895;23;20447;-83
2021/09/14 10:12:41;;;;;;;3.70;3.40;;;22.90;98.30;;;;;;5178272;23;20463;-84
2021/09/14 10:14:44;;;;;;;5.53;4.10;;;23.00;98.20;;;;;;5177519;23;20420;-84
2021/09/14 10:16:48;;;;;;;7.87;4.00;;;23.00;97.90;;;;;;5177068;23;20510;-83
2021/09/14 10:18:51;;;;;;;4.37;3.97;;;23.30;96.50;;;;;;5177003;23;20448;-83
2021/09/14 10:20:54;;;;;;;6.20;4.13;;;22.90;96.10;;;;;;5168039;23;20530;-83
2021/09/14 10:23:02;;;;;;;4.20;3.80;;;22.60;95.80;;;;;;5176522;23;20427;-83
2021/09/14 10:25:08;;;;;;;6.20;3.73;;;22.40;97.70;;;;;;5170575;23;20423;-84
2021/09/14 10:27:13;;;;;;;3.63;3.20;;;22.70;97.60;;;;;;5181524;23;20507;-83
2021/09/14 10:29:19;;;;;;;9.73;4.10;;;23.00;97.40;;;;;;5181410;23;20675;-83
2021/09/14 10:31:23;;;;;;;6.30;3.50;;;23.40;96.10;;;;;;5180239;23;20444;-84
2021/09/14 10:33:28;;;;;;;5.00;3.77;;;23.90;95.70;;;;;;5180004;23;20447;-83
2021/09/14 10:35:34;;;;;;;6.47;3.70;;;24.30;94.10;;;;;;5179434;23;20447;-83
2021/09/14 10:37:40;;;;;;;6.37;4.20;;;25.00;93.30;;;;;;5170399;23;20738;-84
2021/09/14 10:39:44;;;;;;;5.10;3.40;;;25.10;90.70;;;;;;5179725;23;20409;-83
2021/09/14 10:41:51;;;;;;;6.40;3.50;;;24.70;90.90;;;;;;5179385;23;20538;-84
2021/09/14 10:43:58;;;;;;;5.80;3.77;;;23.60;92.90;;;;;;5180468;23;20418;-83
2021/09/14 10:46:01;;;;;;;7.80;3.90;;;23.50;94.60;;;;;;5180556;23;20515;-83
2021/09/14 10:48:05;;;;;;;5.57;4.03;;;24.30;93.50;;;;;;5171214;23;20773;-83
2021/09/14 10:50:10;;;;;;;5.50;4.40;;;25.10;91.30;;;;;;5169648;23;20510;-83
2021/09/14 10:52:15;;;;;;;4.00;3.60;;;25.40;90.30;;;;;;5170553;23;20442;-83
2021/09/14 10:54:21;;;;;;;4.53;3.40;;;25.60;90.40;;;;;;5169399;23;20460;-83
2021/09/14 10:56:26;;;;;;;5.80;4.20;;;24.70;90.00;;;;;;5170941;23;20432;-83
2021/09/14 10:58:40;;;;;;;3.80;3.40;;;24.10;92.10;;;;;;5172327;23;20428;-83
2021/09/14 11:00:48;;;;;;;5.87;3.90;;;24.00;92.20;;;;;;5182186;23;20499;-84
2021/09/14 11:02:58;;;;;;;5.70;3.73;;;24.00;92.20;;;;;;5171846;23;20411;-83
2021/09/14 11:05:02;;;;;;;5.27;3.90;;;24.30;93.40;;;;;;5177993;23;20438;-84
2021/09/14 11:07:11;;;;;;;4.20;3.80;;;25.10;91.50;;;;;;5169227;23;20427;-84
2021/09/14 11:09:14;;;;;;;7.70;4.50;;;25.20;90.00;;;;;;5168972;23;20415;-83
2021/09/14 11:11:18;;;;;;;6.17;4.20;;;24.90;90.80;;;;;;5177660;23;20447;-83
2021/09/14 11:13:22;;;;;;;6.57;5.00;;;24.50;90.30;;;;;;5179566;23;20427;-83
2021/09/14 11:15:27;;;;;;;5.60;3.73;;;24.00;92.60;;;;;;5169787;23;20478;-84
2021/09/14 11:17:34;;;;;;;6.90;3.97;;;23.90;93.20;;;;;;5178364;23;20510;-84
2021/09/14 11:19:37;;;;;;;4.60;4.20;;;23.80;93.00;;;;;;5179198;23;20424;-84
2021/09/14 11:21:45;;;;;;;6.37;3.50;;;23.70;93.50;;;;;;5179672;23;20462;-83
2021/09/14 11:23:50;;;;;;;4.90;3.80;;;24.10;93.00;;;;;;5170350;23;20444;-84
2021/09/14 11:25:55;;;;;;;5.37;3.87;;;24.30;92.20;;;;;;5178573;23;20427;-84
2021/09/14 11:27:59;;;;;;;5.20;3.83;;;24.30;92.80;;;;;;5177698;23;20452;-83
2021/09/14 11:30:02;;;;;;;7.00;4.57;;;24.60;92.10;;;;;;5177659;23;20506;-84
2021/09/14 11:32:14;;;;;;;7.40;6.63;;;25.50;90.10;;;;;;5168992;23;20522;-84
2021/09/14 11:34:20;;;;;;;9.60;8.47;;;25.80;88.40;;;;;;5167744;23;20416;-84
2021/09/14 11:36:23;;;;;;;6.30;4.70;;;25.60;89.50;;;;;;5176719;23;20466;-83
2021/09/14 11:38:28;;;;;;;4.60;3.87;;;25.10;88.90;;;;;;5177276;23;21100;-83
2021/09/14 11:40:33;;;;;;;5.77;3.83;;;24.60;90.50;;;;;;5169285;23;20797;-84